CAUA4: Poteau River At Cauthron, AR

Data processed at Fri Mar 09 2018 23:31


All information presented herein is the property of the government of the United States of America and may be revised or deleted at any time without prior notice.
Dissemination of this information without the expressed written consent of the Public Affairs Office, Tulsa District U.S. Army Corps of Engineers is strictly prohibited.
These data are gathered electronically and, as presented, have not undergone any form of quality control. These data are not guaranteed to be valid or correct.
Go to home page.
Go to station list.

Downstream station:


Previous Day
Next Day
Current Day
    
SHEF ID:       CAUA4     Poteau River at Cauthron, AR
STATION TYPE:  

               PRECIP     STAGE  RIV-FLOW  BAT-LOAD
                   in        ft       cfs      volt
              Ccp-Rev   Ccp-Rev   Ccp-Rev   Ccp-Rev
(US/Central)
03/07 00:00      0.00      5.91       700     12.54
03/07 01:00      0.00      5.89       678     12.54
03/07 02:00      0.00      5.90       689     12.48
03/07 03:00      0.00      5.88       667     12.48
03/07 04:00      0.00      5.88       667     12.42
03/07 05:00      0.00      5.87       656     12.42
03/07 06:00      0.00      5.86       645     12.42
03/07 07:00      0.00      5.85       635     12.42
03/07 08:00      0.00      5.85       635     12.83
03/07 09:00      0.00      5.84       624     13.53
03/07 10:00      0.00      5.77       553     13.94
03/07 11:00      0.00      5.77       553     14.00
03/07 12:00      0.00      5.74       524     13.94
03/07 13:00      0.00      5.73       515     13.77
03/07 14:00      0.00      5.74       524     12.95
03/07 15:00      0.00      5.76       543     12.89
03/07 16:00      0.00      5.72       506     12.89
03/07 17:00      0.00      5.79       573     12.83
03/07 18:00      0.00      5.79       573     12.71
03/07 19:00      0.00      5.77       553     12.65
03/07 20:00      0.00      5.76       543     12.60
03/07 21:00      0.00      5.76       543     12.60
03/07 22:00      0.00      5.75       533     12.60
03/07 23:00      0.00      5.74       524     12.54